Terminal Aerodrome Forecast
Issued by NWS

Home | Current Version | Previous Version | Text Only | Print | Product List | Glossary On
Versions: 1 2 3 4 5 6 7 8 9 10 11 12 13 14 15 16 17 18 19 20 21
000
FTUS41 KBGM 071140
TAFITH
TAF
KITH 071140Z 0712/0812 19008KT P6SM SCT030 BKN080
      TEMPO 0712/0714 OVC030
     FM071500 20009KT P6SM SCT020 BKN050
     FM072200 22006KT P6SM SCT050 PROB30 0804/0806 4SM -SHRA OVC030
     FM080600 26008KT 5SM -SHRA OVC020
     FM080900 30009KT 3SM -SHRA BR OVC009=

USA.gov is the U.S. government's official web portal to all federal, state and local government web resources and services.